sensor_id;sensor_type;location;lat;lon;timestamp;pressure;altitude;pressure_sealevel;temperature;humidity
50123;BME280;36021;48.670;6.184;2023-05-03T00:00:38;99855.03;;;13.04;100.00
50123;BME280;36021;48.670;6.184;2023-05-03T00:03:04;99854.53;;;12.97;100.00
50123;BME280;36021;48.670;6.184;2023-05-03T00:05:33;99849.34;;;12.91;100.00
50123;BME280;36021;48.670;6.184;2023-05-03T00:07:58;99853.19;;;12.90;100.00
50123;BME280;36021;48.670;6.184;2023-05-03T00:10:25;99849.41;;;12.81;100.00
50123;BME280;36021;48.670;6.184;2023-05-03T00:12:50;99849.00;;;12.64;100.00
50123;BME280;36021;48.670;6.184;2023-05-03T00:15:16;99842.34;;;12.65;100.00
50123;BME280;36021;48.670;6.184;2023-05-03T00:17:41;99850.47;;;12.51;100.00
50123;BME280;36021;48.670;6.184;2023-05-03T00:20:07;99849.38;;;12.47;100.00
50123;BME280;36021;48.670;6.184;2023-05-03T00:22:33;99844.16;;;12.45;100.00
50123;BME280;36021;48.670;6.184;2023-05-03T00:25:00;99843.66;;;12.38;100.00
50123;BME280;36021;48.670;6.184;2023-05-03T00:27:25;99841.78;;;12.29;100.00
50123;BME280;36021;48.670;6.184;2023-05-03T00:29:52;99839.28;;;12.27;100.00
50123;BME280;36021;48.670;6.184;2023-05-03T00:32:19;99838.44;;;12.32;100.00
50123;BME280;36021;48.670;6.184;2023-05-03T00:34:45;99836.00;;;12.25;100.00
50123;BME280;36021;48.670;6.184;2023-05-03T00:37:10;99829.34;;;12.26;100.00
50123;BME280;36021;48.670;6.184;2023-05-03T00:39:36;99824.34;;;12.33;100.00
50123;BME280;36021;48.670;6.184;2023-05-03T00:42:02;99827.66;;;12.30;100.00
50123;BME280;36021;48.670;6.184;2023-05-03T00:44:30;99832.59;;;12.38;100.00
50123;BME280;36021;48.670;6.184;2023-05-03T00:46:55;99835.31;;;12.43;100.00
50123;BME280;36021;48.670;6.184;2023-05-03T00:49:23;99828.16;;;12.37;100.00
50123;BME280;36021;48.670;6.184;2023-05-03T00:51:48;99822.34;;;12.39;100.00
50123;BME280;36021;48.670;6.184;2023-05-03T00:54:14;99826.84;;;12.30;100.00
50123;BME280;36021;48.670;6.184;2023-05-03T00:56:40;99831.50;;;12.34;100.00
50123;BME280;36021;48.670;6.184;2023-05-03T00:59:07;99825.47;;;12.27;100.00
50123;BME280;36021;48.670;6.184;2023-05-03T01:01:34;99820.75;;;12.33;100.00
50123;BME280;36021;48.670;6.184;2023-05-03T01:04:01;99829.28;;;12.36;100.00
50123;BME280;36021;48.670;6.184;2023-05-03T01:06:38;99821.91;;;12.22;100.00
50123;BME280;36021;48.670;6.184;2023-05-03T01:11:34;99828.06;;;12.14;100.00
50123;BME280;36021;48.670;6.184;2023-05-03T01:14:09;99825.00;;;12.15;100.00
50123;BME280;36021;48.670;6.184;2023-05-03T01:16:39;99825.06;;;12.05;100.00
50123;BME280;36021;48.670;6.184;2023-05-03T01:21:56;99815.13;;;11.99;100.00
50123;BME280;36021;48.670;6.184;2023-05-03T01:24:25;99817.91;;;11.99;100.00
50123;BME280;36021;48.670;6.184;2023-05-03T01:26:51;99812.38;;;12.04;100.00
50123;BME280;36021;48.670;6.184;2023-05-03T01:29:17;99810.72;;;11.98;100.00
50123;BME280;36021;48.670;6.184;2023-05-03T01:31:48;99812.09;;;12.00;100.00
50123;BME280;36021;48.670;6.184;2023-05-03T01:36:48;99811.22;;;12.05;100.00
50123;BME280;36021;48.670;6.184;2023-05-03T01:39:23;99808.25;;;11.91;100.00
50123;BME280;36021;48.670;6.184;2023-05-03T01:41:50;99819.56;;;12.00;100.00
50123;BME280;36021;48.670;6.184;2023-05-03T01:44:18;99810.16;;;12.01;100.00
50123;BME280;36021;48.670;6.184;2023-05-03T01:46:45;99807.44;;;11.96;100.00
50123;BME280;36021;48.670;6.184;2023-05-03T01:49:11;99814.94;;;11.85;100.00
50123;BME280;36021;48.670;6.184;2023-05-03T01:51:36;99804.72;;;11.86;100.00
50123;BME280;36021;48.670;6.184;2023-05-03T01:54:02;99811.06;;;11.81;100.00
50123;BME280;36021;48.670;6.184;2023-05-03T01:56:28;99812.22;;;11.80;100.00
50123;BME280;36021;48.670;6.184;2023-05-03T01:58:55;99811.44;;;11.65;100.00
50123;BME280;36021;48.670;6.184;2023-05-03T02:01:21;99810.34;;;11.61;100.00
50123;BME280;36021;48.670;6.184;2023-05-03T02:03:49;99804.28;;;11.54;100.00
50123;BME280;36021;48.670;6.184;2023-05-03T02:06:15;99806.50;;;11.46;100.00
50123;BME280;36021;48.670;6.184;2023-05-03T02:08:41;99807.38;;;11.37;100.00
50123;BME280;36021;48.670;6.184;2023-05-03T02:11:06;99803.81;;;11.31;100.00
50123;BME280;36021;48.670;6.184;2023-05-03T02:13:32;99810.44;;;11.25;100.00
50123;BME280;36021;48.670;6.184;2023-05-03T02:15:57;99808.22;;;11.22;100.00
50123;BME280;36021;48.670;6.184;2023-05-03T02:18:23;99818.75;;;11.15;100.00
50123;BME280;36021;48.670;6.184;2023-05-03T02:20:50;99809.63;;;11.15;100.00
50123;BME280;36021;48.670;6.184;2023-05-03T02:23:15;99814.88;;;11.11;100.00
50123;BME280;36021;48.670;6.184;2023-05-03T02:25:41;99812.66;;;11.13;100.00
50123;BME280;36021;48.670;6.184;2023-05-03T02:28:06;99807.16;;;11.13;100.00
50123;BME280;36021;48.670;6.184;2023-05-03T02:30:33;99808.25;;;11.17;100.00
50123;BME280;36021;48.670;6.184;2023-05-03T02:32:59;99801.63;;;11.13;100.00
50123;BME280;36021;48.670;6.184;2023-05-03T02:35:24;99804.69;;;11.12;100.00
50123;BME280;36021;48.670;6.184;2023-05-03T02:37:50;99796.13;;;11.03;100.00
50123;BME280;36021;48.670;6.184;2023-05-03T02:40:16;99795.06;;;10.99;100.00
50123;BME280;36021;48.670;6.184;2023-05-03T02:42:44;99805.81;;;11.01;100.00
50123;BME280;36021;48.670;6.184;2023-05-03T02:45:13;99800.56;;;11.09;100.00
50123;BME280;36021;48.670;6.184;2023-05-03T02:47:39;99799.41;;;11.20;100.00
50123;BME280;36021;48.670;6.184;2023-05-03T02:50:05;99806.59;;;11.16;100.00
50123;BME280;36021;48.670;6.184;2023-05-03T02:52:35;99804.41;;;11.18;100.00
50123;BME280;36021;48.670;6.184;2023-05-03T02:55:00;99795.56;;;11.21;100.00
50123;BME280;36021;48.670;6.184;2023-05-03T02:57:27;99796.94;;;11.19;100.00
50123;BME280;36021;48.670;6.184;2023-05-03T02:59:54;99793.91;;;11.25;100.00
50123;BME280;36021;48.670;6.184;2023-05-03T03:02:21;99796.66;;;11.20;100.00
50123;BME280;36021;48.670;6.184;2023-05-03T03:04:47;99790.56;;;11.28;100.00
50123;BME280;36021;48.670;6.184;2023-05-03T03:07:13;99787.81;;;11.28;100.00
50123;BME280;36021;48.670;6.184;2023-05-03T03:09:38;99787.25;;;11.31;100.00
50123;BME280;36021;48.670;6.184;2023-05-03T03:12:06;99777.59;;;11.24;100.00
50123;BME280;36021;48.670;6.184;2023-05-03T03:14:32;99769.59;;;11.27;100.00
50123;BME280;36021;48.670;6.184;2023-05-03T03:16:59;99781.72;;;11.31;100.00
50123;BME280;36021;48.670;6.184;2023-05-03T03:19:25;99775.66;;;11.34;100.00
50123;BME280;36021;48.670;6.184;2023-05-03T03:21:50;99777.28;;;11.35;100.00
50123;BME280;36021;48.670;6.184;2023-05-03T03:24:16;99780.06;;;11.30;100.00
50123;BME280;36021;48.670;6.184;2023-05-03T03:26:41;99777.84;;;11.32;100.00
50123;BME280;36021;48.670;6.184;2023-05-03T03:29:07;99778.19;;;11.16;100.00
50123;BME280;36021;48.670;6.184;2023-05-03T03:31:36;99777.91;;;11.17;100.00
50123;BME280;36021;48.670;6.184;2023-05-03T03:34:02;99779.00;;;11.21;100.00
50123;BME280;36021;48.670;6.184;2023-05-03T03:36:29;99779.00;;;11.21;100.00
50123;BME280;36021;48.670;6.184;2023-05-03T03:38:55;99781.22;;;11.14;100.00
50123;BME280;36021;48.670;6.184;2023-05-03T03:41:21;99778.25;;;10.95;100.00
50123;BME280;36021;48.670;6.184;2023-05-03T03:43:49;99778.78;;;10.97;100.00
50123;BME280;36021;48.670;6.184;2023-05-03T03:46:18;99786.50;;;10.80;100.00
50123;BME280;36021;48.670;6.184;2023-05-03T03:48:47;99786.50;;;11.01;100.00
50123;BME280;36021;48.670;6.184;2023-05-03T03:51:13;99782.06;;;11.05;100.00
50123;BME280;36021;48.670;6.184;2023-05-03T03:53:43;99775.72;;;11.04;100.00
50123;BME280;36021;48.670;6.184;2023-05-03T03:56:10;99781.84;;;10.81;100.00
50123;BME280;36021;48.670;6.184;2023-05-03T03:58:36;99788.47;;;10.70;100.00
50123;BME280;36021;48.670;6.184;2023-05-03T04:01:05;99780.44;;;10.83;100.00
50123;BME280;36021;48.670;6.184;2023-05-03T04:03:32;99779.34;;;10.84;100.00
50123;BME280;36021;48.670;6.184;2023-05-03T04:05:59;99774.69;;;10.70;100.00
50123;BME280;36021;48.670;6.184;2023-05-03T04:08:26;99770.81;;;10.76;100.00
50123;BME280;36021;48.670;6.184;2023-05-03T04:10:52;99772.47;;;10.72;100.00
50123;BME280;36021;48.670;6.184;2023-05-03T04:13:18;99767.50;;;10.74;100.00
50123;BME280;36021;48.670;6.184;2023-05-03T04:15:47;99768.06;;;10.71;100.00
50123;BME280;36021;48.670;6.184;2023-05-03T04:18:12;99759.25;;;10.69;100.00
50123;BME280;36021;48.670;6.184;2023-05-03T04:20:40;99766.41;;;10.75;100.00
50123;BME280;36021;48.670;6.184;2023-05-03T04:23:07;99760.34;;;10.68;100.00
50123;BME280;36021;48.670;6.184;2023-05-03T04:25:34;99775.25;;;10.62;100.00
50123;BME280;36021;48.670;6.184;2023-05-03T04:28:07;99771.66;;;10.61;100.00
50123;BME280;36021;48.670;6.184;2023-05-03T04:30:36;99768.06;;;10.51;100.00
50123;BME280;36021;48.670;6.184;2023-05-03T04:33:02;99770.28;;;10.49;100.00
50123;BME280;36021;48.670;6.184;2023-05-03T04:35:32;99768.63;;;10.48;100.00
50123;BME280;36021;48.670;6.184;2023-05-03T04:38:02;99772.47;;;10.31;100.00
50123;BME280;36021;48.670;6.184;2023-05-03T04:40:30;99768.63;;;10.37;100.00
50123;BME280;36021;48.670;6.184;2023-05-03T04:43:03;99764.22;;;10.31;100.00
50123;BME280;36021;48.670;6.184;2023-05-03T04:45:33;99762.00;;;10.18;100.00
50123;BME280;36021;48.670;6.184;2023-05-03T04:48:01;99756.22;;;10.20;100.00
50123;BME280;36021;48.670;6.184;2023-05-03T04:50:31;99749.34;;;10.17;100.00
50123;BME280;36021;48.670;6.184;2023-05-03T04:52:57;99755.94;;;10.16;100.00
50123;BME280;36021;48.670;6.184;2023-05-03T04:55:24;99752.66;;;10.19;100.00
50123;BME280;36021;48.670;6.184;2023-05-03T04:57:51;99755.13;;;10.16;100.00
50123;BME280;36021;48.670;6.184;2023-05-03T05:00:16;99757.56;;;10.12;100.00
50123;BME280;36021;48.670;6.184;2023-05-03T05:02:49;99765.00;;;10.12;100.00
50123;BME280;36021;48.670;6.184;2023-05-03T05:05:16;99766.91;;;10.11;100.00
50123;BME280;36021;48.670;6.184;2023-05-03T05:07:43;99772.16;;;10.08;100.00
50123;BME280;36021;48.670;6.184;2023-05-03T05:10:10;99773.56;;;10.15;100.00
50123;BME280;36021;48.670;6.184;2023-05-03T05:12:36;99777.19;;;10.21;100.00
50123;BME280;36021;48.670;6.184;2023-05-03T05:15:04;99781.84;;;10.20;100.00
50123;BME280;36021;48.670;6.184;2023-05-03T05:17:29;99784.00;;;10.13;100.00
50123;BME280;36021;48.670;6.184;2023-05-03T05:19:56;99778.47;;;10.08;100.00
50123;BME280;36021;48.670;6.184;2023-05-03T05:22:21;99787.56;;;10.09;100.00
50123;BME280;36021;48.670;6.184;2023-05-03T05:24:53;99789.53;;;10.18;100.00
50123;BME280;36021;48.670;6.184;2023-05-03T05:27:22;99794.50;;;10.31;100.00
50123;BME280;36021;48.670;6.184;2023-05-03T05:29:49;99792.88;;;10.20;100.00
50123;BME280;36021;48.670;6.184;2023-05-03T05:32:15;99789.28;;;10.20;100.00
50123;BME280;36021;48.670;6.184;2023-05-03T05:34:40;99790.94;;;10.26;100.00
50123;BME280;36021;48.670;6.184;2023-05-03T05:37:09;99789.00;;;10.21;100.00
50123;BME280;36021;48.670;6.184;2023-05-03T05:39:35;99793.69;;;10.31;100.00
50123;BME280;36021;48.670;6.184;2023-05-03T05:42:01;99793.97;;;10.34;100.00
50123;BME280;36021;48.670;6.184;2023-05-03T05:44:28;99789.00;;;10.26;100.00
50123;BME280;36021;48.670;6.184;2023-05-03T05:46:55;99787.63;;;10.29;100.00
50123;BME280;36021;48.670;6.184;2023-05-03T05:49:22;99791.78;;;10.26;100.00
50123;BME280;36021;48.670;6.184;2023-05-03T05:51:47;99792.88;;;10.30;100.00
50123;BME280;36021;48.670;6.184;2023-05-03T05:54:13;99789.03;;;10.36;100.00
50123;BME280;36021;48.670;6.184;2023-05-03T05:56:39;99795.06;;;10.38;100.00
50123;BME280;36021;48.670;6.184;2023-05-03T05:59:05;99802.50;;;10.28;100.00
50123;BME280;36021;48.670;6.184;2023-05-03T06:01:32;99801.13;;;10.40;100.00
50123;BME280;36021;48.670;6.184;2023-05-03T06:03:59;99811.59;;;10.38;100.00
50123;BME280;36021;48.670;6.184;2023-05-03T06:06:26;99810.50;;;10.44;100.00
50123;BME280;36021;48.670;6.184;2023-05-03T06:08:52;99816.59;;;10.57;100.00
50123;BME280;36021;48.670;6.184;2023-05-03T06:11:19;99817.69;;;10.66;100.00
50123;BME280;36021;48.670;6.184;2023-05-03T06:13:45;99820.72;;;10.79;100.00
50123;BME280;36021;48.670;6.184;2023-05-03T06:16:14;99821.81;;;10.78;100.00
50123;BME280;36021;48.670;6.184;2023-05-03T06:18:40;99827.59;;;10.77;100.00
50123;BME280;36021;48.670;6.184;2023-05-03T06:21:06;99833.13;;;10.87;100.00
50123;BME280;36021;48.670;6.184;2023-05-03T06:23:32;99818.22;;;10.93;100.00
50123;BME280;36021;48.670;6.184;2023-05-03T06:25:59;99824.84;;;10.97;100.00
50123;BME280;36021;48.670;6.184;2023-05-03T06:28:25;99828.69;;;11.01;100.00
50123;BME280;36021;48.670;6.184;2023-05-03T06:30:54;99832.00;;;11.08;100.00
50123;BME280;36021;48.670;6.184;2023-05-03T06:33:20;99826.75;;;11.12;100.00
50123;BME280;36021;48.670;6.184;2023-05-03T06:35:49;99825.34;;;11.19;100.00
50123;BME280;36021;48.670;6.184;2023-05-03T06:38:16;99829.75;;;11.30;100.00
50123;BME280;36021;48.670;6.184;2023-05-03T06:40:43;99824.78;;;11.27;100.00
50123;BME280;36021;48.670;6.184;2023-05-03T06:43:09;99828.06;;;11.29;100.00
50123;BME280;36021;48.670;6.184;2023-05-03T06:45:49;99823.66;;;11.33;100.00
50123;BME280;36021;48.670;6.184;2023-05-03T06:48:16;99813.13;;;11.45;100.00
50123;BME280;36021;48.670;6.184;2023-05-03T06:50:42;99819.19;;;11.58;100.00
50123;BME280;36021;48.670;6.184;2023-05-03T06:53:08;99815.00;;;11.65;100.00
50123;BME280;36021;48.670;6.184;2023-05-03T06:55:33;99807.81;;;11.74;100.00
50123;BME280;36021;48.670;6.184;2023-05-03T06:57:59;99815.75;;;11.86;100.00
50123;BME280;36021;48.670;6.184;2023-05-03T07:00:26;99805.84;;;11.80;100.00
50123;BME280;36021;48.670;6.184;2023-05-03T07:02:52;99816.38;;;11.78;100.00
50123;BME280;36021;48.670;6.184;2023-05-03T07:05:19;99807.22;;;11.87;100.00
50123;BME280;36021;48.670;6.184;2023-05-03T07:07:44;99820.66;;;11.99;100.00
50123;BME280;36021;48.670;6.184;2023-05-03T07:10:10;99819.00;;;11.98;100.00
50123;BME280;36021;48.670;6.184;2023-05-03T07:12:35;99817.91;;;12.04;100.00
50123;BME280;36021;48.670;6.184;2023-05-03T07:15:01;99817.81;;;12.14;100.00
50123;BME280;36021;48.670;6.184;2023-05-03T07:17:27;99815.59;;;12.16;100.00
50123;BME280;36021;48.670;6.184;2023-05-03T07:19:52;99817.91;;;12.04;100.00
50123;BME280;36021;48.670;6.184;2023-05-03T07:22:18;99814.56;;;12.02;100.00
50123;BME280;36021;48.670;6.184;2023-05-03T07:24:46;99812.84;;;12.11;100.00
50123;BME280;36021;48.670;6.184;2023-05-03T07:27:12;99809.50;;;12.19;100.00
50123;BME280;36021;48.670;6.184;2023-05-03T07:29:40;99808.94;;;12.22;100.00
50123;BME280;36021;48.670;6.184;2023-05-03T07:32:05;99806.44;;;12.21;100.00
50123;BME280;36021;48.670;6.184;2023-05-03T07:34:32;99804.16;;;12.33;100.00
50123;BME280;36021;48.670;6.184;2023-05-03T07:36:59;99797.41;;;12.49;100.00
50123;BME280;36021;48.670;6.184;2023-05-03T07:39:24;99794.31;;;12.56;100.00
50123;BME280;36021;48.670;6.184;2023-05-03T07:41:50;99790.56;;;12.70;100.00
50123;BME280;36021;48.670;6.184;2023-05-03T07:44:16;99791.13;;;12.72;100.00
50123;BME280;36021;48.670;6.184;2023-05-03T07:46:42;99790.78;;;12.79;100.00
50123;BME280;36021;48.670;6.184;2023-05-03T07:49:07;99788.97;;;12.93;100.00
50123;BME280;36021;48.670;6.184;2023-05-03T07:51:36;99790.25;;;13.05;100.00
50123;BME280;36021;48.670;6.184;2023-05-03T07:54:02;99778.47;;;12.95;100.00
50123;BME280;36021;48.670;6.184;2023-05-03T07:56:29;99779.75;;;13.02;100.00
50123;BME280;36021;48.670;6.184;2023-05-03T07:58:55;99775.41;;;12.96;100.00
50123;BME280;36021;48.670;6.184;2023-05-03T08:01:22;99776.63;;;13.14;100.00
50123;BME280;36021;48.670;6.184;2023-05-03T08:03:48;99768.25;;;13.19;100.00
50123;BME280;36021;48.670;6.184;2023-05-03T08:06:18;99771.41;;;13.36;100.00
50123;BME280;36021;48.670;6.184;2023-05-03T08:08:44;99770.16;;;13.47;100.00
50123;BME280;36021;48.670;6.184;2023-05-03T08:11:09;99772.00;;;13.57;100.00
50123;BME280;36021;48.670;6.184;2023-05-03T08:13:35;99772.13;;;13.66;100.00
50123;BME280;36021;48.670;6.184;2023-05-03T08:16:01;99779.13;;;13.82;100.00
50123;BME280;36021;48.670;6.184;2023-05-03T08:18:27;99775.75;;;13.85;100.00
50123;BME280;36021;48.670;6.184;2023-05-03T08:20:52;99775.56;;;14.00;100.00
50123;BME280;36021;48.670;6.184;2023-05-03T08:23:18;99779.75;;;13.97;100.00
50123;BME280;36021;48.670;6.184;2023-05-03T08:25:45;99777.66;;;14.08;100.00
50123;BME280;36021;48.670;6.184;2023-05-03T08:28:11;99770.84;;;14.19;100.00
50123;BME280;36021;48.670;6.184;2023-05-03T08:30:37;99776.91;;;14.21;100.00
50123;BME280;36021;48.670;6.184;2023-05-03T08:33:03;99778.47;;;14.27;100.00
50123;BME280;36021;48.670;6.184;2023-05-03T08:35:28;99761.19;;;14.35;100.00
50123;BME280;36021;48.670;6.184;2023-05-03T08:37:54;99758.88;;;14.42;100.00
50123;BME280;36021;48.670;6.184;2023-05-03T08:40:20;99763.03;;;14.58;100.00
50123;BME280;36021;48.670;6.184;2023-05-03T08:42:46;99770.59;;;14.72;100.00
50123;BME280;36021;48.670;6.184;2023-05-03T08:45:16;99767.03;;;14.85;100.00
50123;BME280;36021;48.670;6.184;2023-05-03T08:47:42;99765.81;;;14.91;100.00
50123;BME280;36021;48.670;6.184;2023-05-03T08:50:09;99764.19;;;15.03;100.00
50123;BME280;36021;48.670;6.184;2023-05-03T08:52:35;99764.19;;;15.03;100.00
50123;BME280;36021;48.670;6.184;2023-05-03T08:55:00;99763.28;;;15.08;100.00
50123;BME280;36021;48.670;6.184;2023-05-03T08:57:26;99757.72;;;15.08;100.00
50123;BME280;36021;48.670;6.184;2023-05-03T08:59:53;99759.16;;;15.19;100.00
50123;BME280;36021;48.670;6.184;2023-05-03T09:02:22;99758.66;;;15.31;100.00
50123;BME280;36021;48.670;6.184;2023-05-03T09:04:50;99757.63;;;15.27;100.00
50123;BME280;36021;48.670;6.184;2023-05-03T09:07:16;99753.81;;;15.36;100.00
50123;BME280;36021;48.670;6.184;2023-05-03T09:09:42;99748.16;;;15.41;100.00
50123;BME280;36021;48.670;6.184;2023-05-03T09:12:07;99747.97;;;15.51;100.00
50123;BME280;36021;48.670;6.184;2023-05-03T09:14:43;99746.72;;;15.57;100.00
50123;BME280;36021;48.670;6.184;2023-05-03T09:17:16;99738.31;;;15.62;100.00
50123;BME280;36021;48.670;6.184;2023-05-03T09:19:48;99741.38;;;15.75;100.00
50123;BME280;36021;48.670;6.184;2023-05-03T09:22:15;99744.88;;;15.80;100.00
50123;BME280;36021;48.670;6.184;2023-05-03T09:24:47;99732.94;;;15.80;100.00
50123;BME280;36021;48.670;6.184;2023-05-03T09:27:18;99738.25;;;15.90;100.00
50123;BME280;36021;48.670;6.184;2023-05-03T09:29:46;99736.81;;;15.92;100.00
50123;BME280;36021;48.670;6.184;2023-05-03T09:32:11;99730.91;;;15.94;100.00
50123;BME280;36021;48.670;6.184;2023-05-03T09:34:37;99727.28;;;16.07;100.00
50123;BME280;36021;48.670;6.184;2023-05-03T09:37:02;99729.81;;;16.17;100.00
50123;BME280;36021;48.670;6.184;2023-05-03T09:39:28;99717.88;;;16.16;100.00
50123;BME280;36021;48.670;6.184;2023-05-03T09:41:54;99721.56;;;16.26;100.00
50123;BME280;36021;48.670;6.184;2023-05-03T09:44:25;99720.22;;;16.23;100.00
50123;BME280;36021;48.670;6.184;2023-05-03T09:47:05;99718.53;;;16.36;100.00
50123;BME280;36021;48.670;6.184;2023-05-03T09:49:31;99713.78;;;16.36;100.00
50123;BME280;36021;48.670;6.184;2023-05-03T09:52:00;99712.19;;;16.44;100.00
50123;BME280;36021;48.670;6.184;2023-05-03T09:54:26;99711.13;;;16.53;100.00
50123;BME280;36021;48.670;6.184;2023-05-03T09:56:53;99709.25;;;16.62;100.00
50123;BME280;36021;48.670;6.184;2023-05-03T09:59:22;99704.19;;;16.64;100.00
50123;BME280;36021;48.670;6.184;2023-05-03T10:01:48;99710.47;;;16.79;100.00
50123;BME280;36021;48.670;6.184;2023-05-03T10:04:15;99700.91;;;16.93;100.00
50123;BME280;36021;48.670;6.184;2023-05-03T10:06:45;99705.75;;;17.10;100.00
50123;BME280;36021;48.670;6.184;2023-05-03T10:09:23;99697.78;;;17.26;100.00
50123;BME280;36021;48.670;6.184;2023-05-03T10:11:51;99687.88;;;17.50;100.00
50123;BME280;36021;48.670;6.184;2023-05-03T10:14:17;99691.88;;;17.66;100.00
50123;BME280;36021;48.670;6.184;2023-05-03T10:16:44;99692.34;;;17.68;100.00
50123;BME280;36021;48.670;6.184;2023-05-03T10:21:56;99694.47;;;17.63;100.00
50123;BME280;36021;48.670;6.184;2023-05-03T10:24:23;99684.16;;;17.81;100.00
50123;BME280;36021;48.670;6.184;2023-05-03T10:26:51;99686.81;;;17.86;100.00
50123;BME280;36021;48.670;6.184;2023-05-03T10:32:29;99671.38;;;17.97;100.00
50123;BME280;36021;48.670;6.184;2023-05-03T10:34:59;99668.59;;;18.14;100.00
50123;BME280;36021;48.670;6.184;2023-05-03T10:37:25;99665.94;;;18.26;100.00
50123;BME280;36021;48.670;6.184;2023-05-03T10:39:51;99663.31;;;18.38;100.00
50123;BME280;36021;48.670;6.184;2023-05-03T10:42:19;99666.44;;;18.45;100.00
50123;BME280;36021;48.670;6.184;2023-05-03T10:44:53;99658.69;;;18.59;100.00
50123;BME280;36021;48.670;6.184;2023-05-03T10:47:20;99643.75;;;18.64;100.00
50123;BME280;36021;48.670;6.184;2023-05-03T10:55:12;99638.69;;;18.95;100.00
50123;BME280;36021;48.670;6.184;2023-05-03T10:57:41;99631.63;;;18.98;100.00
50123;BME280;36021;48.670;6.184;2023-05-03T11:00:13;99633.75;;;19.01;100.00
50123;BME280;36021;48.670;6.184;2023-05-03T11:05:22;99629.47;;;19.03;100.00
50123;BME280;36021;48.670;6.184;2023-05-03T11:07:52;99628.78;;;19.06;100.00
50123;BME280;36021;48.670;6.184;2023-05-03T11:10:31;99636.06;;;18.99;100.00
50123;BME280;36021;48.670;6.184;2023-05-03T11:12:57;99627.44;;;19.12;100.00
50123;BME280;36021;48.670;6.184;2023-05-03T11:15:22;99625.56;;;19.25;100.00
50123;BME280;36021;48.670;6.184;2023-05-03T11:17:47;99624.22;;;19.31;100.00
50123;BME280;36021;48.670;6.184;2023-05-03T11:20:13;99616.13;;;19.38;100.00
50123;BME280;36021;48.670;6.184;2023-05-03T11:22:38;99613.94;;;19.52;100.00
50123;BME280;36021;48.670;6.184;2023-05-03T11:25:06;99615.66;;;19.65;100.00
50123;BME280;36021;48.670;6.184;2023-05-03T11:27:33;99612.56;;;19.58;100.00
50123;BME280;36021;48.670;6.184;2023-05-03T11:29:58;99605.88;;;19.71;100.00
50123;BME280;36021;48.670;6.184;2023-05-03T11:32:25;99602.59;;;19.90;100.00
50123;BME280;36021;48.670;6.184;2023-05-03T11:34:51;99597.13;;;19.94;100.00
50123;BME280;36021;48.670;6.184;2023-05-03T11:37:16;99598.56;;;20.00;100.00
50123;BME280;36021;48.670;6.184;2023-05-03T11:39:42;99586.47;;;20.08;100.00
50123;BME280;36021;48.670;6.184;2023-05-03T11:42:07;99586.75;;;20.15;100.00
50123;BME280;36021;48.670;6.184;2023-05-03T11:44:32;99587.00;;;20.22;100.00
50123;BME280;36021;48.670;6.184;2023-05-03T11:46:58;99584.53;;;20.41;100.00
50123;BME280;36021;48.670;6.184;2023-05-03T11:49:24;99586.38;;;20.49;100.00
50123;BME280;36021;48.670;6.184;2023-05-03T11:51:50;99585.13;;;20.59;100.00
50123;BME280;36021;48.670;6.184;2023-05-03T11:54:16;99584.81;;;20.72;100.00
50123;BME280;36021;48.670;6.184;2023-05-03T11:56:41;99585.03;;;20.67;100.00
50123;BME280;36021;48.670;6.184;2023-05-03T11:59:09;99575.00;;;20.78;100.00
50123;BME280;36021;48.670;6.184;2023-05-03T12:01:34;99582.94;;;20.89;100.00
50123;BME280;36021;48.670;6.184;2023-05-03T12:04:02;99584.13;;;21.00;100.00
50123;BME280;36021;48.670;6.184;2023-05-03T12:06:28;99566.88;;;21.10;100.00
50123;BME280;36021;48.670;6.184;2023-05-03T12:08:55;99570.94;;;21.37;100.00
50123;BME280;36021;48.670;6.184;2023-05-03T12:11:21;99566.34;;;21.44;100.00
50123;BME280;36021;48.670;6.184;2023-05-03T12:13:54;99577.56;;;21.44;100.00
50123;BME280;36021;48.670;6.184;2023-05-03T12:16:20;99578.28;;;21.41;100.00
50123;BME280;36021;48.670;6.184;2023-05-03T12:18:50;99575.16;;;21.70;100.00
50123;BME280;36021;48.670;6.184;2023-05-03T12:21:17;99568.59;;;21.91;100.00
50123;BME280;36021;48.670;6.184;2023-05-03T12:23:43;99577.38;;;22.17;100.00
50123;BME280;36021;48.670;6.184;2023-05-03T12:26:08;99573.19;;;22.54;100.00
50123;BME280;36021;48.670;6.184;2023-05-03T12:28:35;99562.78;;;23.02;100.00
50123;BME280;36021;48.670;6.184;2023-05-03T12:31:01;99559.25;;;23.40;100.00
50123;BME280;36021;48.670;6.184;2023-05-03T12:33:26;99553.50;;;23.67;96.55
50123;BME280;36021;48.670;6.184;2023-05-03T12:35:52;99550.06;;;24.35;100.00
50123;BME280;36021;48.670;6.184;2023-05-03T12:38:17;99552.53;;;24.59;88.45
50123;BME280;36021;48.670;6.184;2023-05-03T12:40:43;99548.00;;;26.09;80.60
50123;BME280;36021;48.670;6.184;2023-05-03T12:43:09;99547.44;;;26.66;72.10
50123;BME280;36021;48.670;6.184;2023-05-03T12:45:35;99531.03;;;27.33;69.04
50123;BME280;36021;48.670;6.184;2023-05-03T12:48:00;99529.22;;;28.84;60.00
50123;BME280;36021;48.670;6.184;2023-05-03T12:50:27;99533.66;;;29.38;51.87
50123;BME280;36021;48.670;6.184;2023-05-03T12:52:52;99524.84;;;30.88;47.02
50123;BME280;36021;48.670;6.184;2023-05-03T12:55:17;99528.31;;;31.14;45.48
50123;BME280;36021;48.670;6.184;2023-05-03T12:57:45;99521.88;;;31.47;42.53
50123;BME280;36021;48.670;6.184;2023-05-03T13:00:10;99504.03;;;32.94;39.19
50123;BME280;36021;48.670;6.184;2023-05-03T13:02:36;99500.44;;;33.99;36.42
50123;BME280;36021;48.670;6.184;2023-05-03T13:05:02;99510.34;;;35.64;33.98
50123;BME280;36021;48.670;6.184;2023-05-03T13:07:28;99509.06;;;35.20;32.74
50123;BME280;36021;48.670;6.184;2023-05-03T13:09:54;99509.59;;;35.15;31.70